Time;durP1;ratioP1;P1;durP2;ratioP2;P2;SDS_P1;SDS_P2;PMS_P1;PMS_P2;Temp;Humidity;BMP_temperature;BMP_pressure;BME280_temperature;BME280_humidity;BME280_pressure;Samples;Min_cycle;Max_cycle;Signal;HPM_P1;HPM_P2
2022/03/21 00:01:57;;;;;;;64.10;36.90;;;;;;;4.27;39.32;103018.88;105406;1281;22550;-73
2022/03/21 00:04:24;;;;;;;62.60;37.50;;;;;;;4.24;39.36;103018.69;105444;1281;24456;-75
2022/03/21 00:06:50;;;;;;;69.50;36.90;;;;;;;4.23;39.57;103018.25;105609;1274;22750;-74
2022/03/21 00:09:17;;;;;;;61.90;37.00;;;;;;;4.16;39.59;103017.35;105381;1281;22784;-73
2022/03/21 00:11:43;;;;;;;69.50;39.70;;;;;;;4.13;39.79;103019.44;104716;1287;22558;-73
2022/03/21 00:14:12;;;;;;;67.70;39.20;;;;;;;4.15;39.87;103019.38;104829;1287;22644;-73
2022/03/21 00:16:40;;;;;;;63.30;37.20;;;;;;;4.10;39.74;103022.40;104757;1287;24432;-74
2022/03/21 00:19:07;;;;;;;62.10;37.70;;;;;;;4.03;40.07;103023.36;104541;1290;23957;-75
2022/03/21 00:21:35;;;;;;;63.90;38.30;;;;;;;3.98;40.20;103026.21;104465;1290;25941;-75
2022/03/21 00:24:05;;;;;;;72.40;40.20;;;;;;;3.95;40.41;103021.52;104548;1290;22570;-74
2022/03/21 00:26:31;;;;;;;64.90;39.70;;;;;;;3.95;40.35;103023.24;104282;1288;25656;-72
2022/03/21 00:28:57;;;;;;;70.70;40.10;;;;;;;3.93;40.41;103017.38;105107;1284;22788;-75
2022/03/21 00:31:23;;;;;;;67.60;40.00;;;;;;;3.94;40.46;103020.56;104993;1285;22725;-77
2022/03/21 00:33:50;;;;;;;66.40;41.10;;;;;;;3.91;40.58;103019.14;105072;1284;22996;-76
2022/03/21 00:36:16;;;;;;;73.40;42.80;;;;;;;3.87;40.66;103019.26;105271;1280;22549;-75
2022/03/21 00:39:03;;;;;;;72.50;42.20;;;;;;;3.87;40.77;103018.38;106206;1273;23935;-75
2022/03/21 00:41:31;;;;;;;71.60;41.40;;;;;;;3.86;40.93;103022.02;106125;1273;22551;-75
2022/03/21 00:43:59;;;;;;;65.70;40.30;;;;;;;3.82;41.02;103022.45;106057;1275;25527;-74
2022/03/21 00:46:26;;;;;;;66.40;41.10;;;;;;;3.77;40.98;103022.29;105974;1274;22627;-74
2022/03/21 00:48:52;;;;;;;74.50;42.80;;;;;;;3.70;40.96;103026.06;105727;1275;24317;-75
2022/03/21 00:51:18;;;;;;;74.60;40.90;;;;;;;3.68;40.81;103022.29;105896;1274;22748;-72
2022/03/21 00:53:44;;;;;;;80.60;46.30;;;;;;;3.71;40.69;103021.64;105950;1273;22728;-73
2022/03/21 00:56:10;;;;;;;83.20;45.30;;;;;;;3.74;40.38;103026.15;105448;1280;25386;-73
2022/03/21 00:58:36;;;;;;;77.90;45.60;;;;;;;3.75;40.49;103024.10;105387;1280;22547;-75
2022/03/21 01:01:03;;;;;;;92.80;48.30;;;;;;;3.74;40.46;103024.06;105691;1279;22569;-74
2022/03/21 01:03:29;;;;;;;80.20;46.30;;;;;;;3.71;40.57;103021.08;105485;1279;23995;-75
2022/03/21 01:05:55;;;;;;;87.50;45.90;;;;;;;3.70;40.72;103018.28;105673;1279;25325;-75
2022/03/21 01:08:22;;;;;;;84.20;45.40;;;;;;;3.69;41.03;103018.35;105609;1280;22611;-75
2022/03/21 01:10:48;;;;;;;82.50;44.60;;;;;;;3.64;41.28;103014.60;105739;1279;22545;-74
2022/03/21 01:13:18;;;;;;;75.40;43.80;;;;;;;3.55;41.46;103010.52;105777;1279;23670;-74
2022/03/21 01:15:44;;;;;;;83.40;45.20;;;;;;;3.49;41.71;103010.88;105843;1275;22634;-76
2022/03/21 01:18:11;;;;;;;83.50;47.10;;;;;;;3.40;41.85;103007.14;106079;1273;25371;-78
2022/03/21 01:20:37;;;;;;;86.60;47.40;;;;;;;3.39;41.92;103006.20;106010;1273;26553;-75
2022/03/21 01:23:03;;;;;;;80.90;47.00;;;;;;;3.33;41.89;103003.11;106088;1273;24238;-74
2022/03/21 01:25:30;;;;;;;84.40;48.80;;;;;;;3.31;42.10;102995.63;105573;1280;25514;-75
2022/03/21 01:27:56;;;;;;;82.60;46.70;;;;;;;3.33;42.15;102995.58;105811;1279;25914;-74
2022/03/21 01:30:22;;;;;;;81.70;49.20;;;;;;;3.31;42.26;102996.33;105303;1284;25315;-73
2022/03/21 01:32:49;;;;;;;83.70;48.80;;;;;;;3.33;42.24;102996.44;105275;1285;24217;-73
2022/03/21 01:35:17;;;;;;;87.30;48.70;;;;;;;3.37;42.32;102996.53;105285;1284;24318;-74
2022/03/21 01:37:44;;;;;;;85.80;49.10;;;;;;;3.32;42.62;102997.13;105170;1285;22579;-73
2022/03/21 01:40:12;;;;;;;90.60;49.60;;;;;;;3.28;42.75;102998.21;105160;1284;26524;-73
2022/03/21 01:42:43;;;;;;;97.00;50.70;;;;;;;3.26;42.89;102996.70;105239;1283;22650;-70
2022/03/21 01:45:10;;;;;;;85.80;48.80;;;;;;;3.28;43.03;102994.41;105313;1282;22572;-71
2022/03/21 01:47:37;;;;;;;94.30;49.60;;;;;;;3.31;43.09;102993.22;105067;1285;22794;-73
2022/03/21 01:50:05;;;;;;;93.80;50.00;;;;;;;3.30;42.98;102991.61;105202;1279;22562;-74
2022/03/21 01:52:32;;;;;;;91.60;50.10;;;;;;;3.26;42.96;102984.54;105550;1279;22547;-73
2022/03/21 01:57:45;;;;;;;83.40;47.50;;;;;;;3.21;43.18;102983.69;106002;1275;25264;-75
2022/03/21 02:00:12;;;;;;;83.50;48.90;;;;;;;3.19;43.29;102982.54;106069;1273;26681;-74
2022/03/21 02:02:39;;;;;;;88.50;49.00;;;;;;;3.19;43.35;102984.64;106003;1274;22727;-76
2022/03/21 02:05:06;;;;;;;86.20;49.60;;;;;;;3.16;43.32;102982.70;106154;1273;25640;-75
2022/03/21 02:07:33;;;;;;;84.30;48.40;;;;;;;3.14;43.49;102984.33;105993;1274;24110;-75
2022/03/21 02:09:59;;;;;;;95.40;51.70;;;;;;;3.14;43.35;102985.91;106162;1273;23346;-75
2022/03/21 02:12:26;;;;;;;87.40;49.50;;;;;;;3.13;43.44;102990.50;106055;1273;24536;-77
2022/03/21 02:14:52;;;;;;;79.50;48.30;;;;;;;3.12;43.66;102989.91;106050;1274;22795;-75
2022/03/21 02:17:19;;;;;;;86.90;50.30;;;;;;;3.12;43.84;102993.41;106128;1273;22551;-77
2022/03/21 02:19:47;;;;;;;88.10;48.50;;;;;;;3.09;43.89;102995.66;106070;1274;22553;-76
2022/03/21 02:22:25;;;;;;;87.00;48.20;;;;;;;3.01;44.04;102988.55;105982;1274;25448;-76
2022/03/21 02:25:17;;;;;;;87.50;49.80;;;;;;;2.99;44.02;102993.30;106077;1273;23974;-78
2022/03/21 02:27:45;;;;;;;86.20;49.20;;;;;;;2.95;44.10;102992.16;105975;1273;22583;-76
2022/03/21 02:30:14;;;;;;;89.20;50.40;;;;;;;2.89;44.18;102993.70;105758;1279;22749;-79
2022/03/21 02:32:42;;;;;;;101.80;51.80;;;;;;;2.77;44.12;102993.64;105757;1279;24265;-79
2022/03/21 02:35:10;;;;;;;91.50;51.80;;;;;;;2.76;44.34;102996.48;105814;1279;23976;-74
2022/03/21 02:37:37;;;;;;;99.20;53.90;;;;;;;2.76;44.21;102996.18;105048;1285;22563;-74
2022/03/21 02:40:05;;;;;;;98.20;54.50;;;;;;;2.83;44.10;103000.08;104617;1290;24633;-75
2022/03/21 02:42:31;;;;;;;119.60;59.50;;;;;;;2.85;44.06;103002.17;104470;1291;22887;-75
2022/03/21 02:44:57;;;;;;;123.00;59.10;;;;;;;2.87;43.93;103001.58;104198;1291;22722;-77
2022/03/21 02:47:23;;;;;;;117.90;58.60;;;;;;;2.89;43.90;102999.05;104781;1290;23134;-75
2022/03/21 02:49:50;;;;;;;141.10;65.50;;;;;;;2.89;43.83;102998.27;104988;1285;22605;-78
2022/03/21 02:52:19;;;;;;;132.90;63.80;;;;;;;2.91;43.77;102997.17;105136;1284;22783;-76
2022/03/21 02:54:45;;;;;;;127.10;66.00;;;;;;;2.93;43.67;102996.61;105235;1284;24165;-77
2022/03/21 02:57:11;;;;;;;135.80;65.70;;;;;;;2.89;43.73;102996.16;105567;1279;22497;-74
2022/03/21 02:59:37;;;;;;;144.50;66.60;;;;;;;2.89;43.89;102997.88;105868;1275;22576;-79
2022/03/21 03:02:05;;;;;;;145.50;67.30;;;;;;;2.90;44.01;102996.35;105982;1275;22667;-77
2022/03/21 03:04:32;;;;;;;127.70;65.30;;;;;;;2.90;44.13;102994.27;106038;1274;22541;-78
2022/03/21 03:06:58;;;;;;;141.50;68.80;;;;;;;2.91;44.03;102991.58;105697;1279;25632;-78
2022/03/21 03:09:24;;;;;;;142.00;68.30;;;;;;;2.91;43.90;102990.33;105672;1279;22772;-79
2022/03/21 03:11:50;;;;;;;139.70;66.10;;;;;;;2.94;43.89;102994.21;105684;1279;24258;-75
2022/03/21 03:14:16;;;;;;;138.70;66.60;;;;;;;2.92;44.18;102993.37;105754;1280;25521;-75
2022/03/21 03:16:43;;;;;;;137.70;67.90;;;;;;;2.89;44.35;102991.43;105179;1284;25271;-78
2022/03/21 03:19:09;;;;;;;133.80;66.60;;;;;;;2.85;44.56;102991.91;104939;1285;22611;-71
2022/03/21 03:21:43;;;;;;;144.00;66.00;;;;;;;2.83;44.52;102991.98;105014;1285;22627;-73
2022/03/21 03:24:11;;;;;;;136.60;66.60;;;;;;;2.81;44.74;102994.98;105244;1285;25405;-74
2022/03/21 03:26:37;;;;;;;136.60;67.90;;;;;;;2.78;44.66;102990.75;105433;1281;24985;-74
2022/03/21 03:29:04;;;;;;;132.50;65.50;;;;;;;2.76;45.04;102993.19;105306;1281;25383;-83
2022/03/21 03:31:30;;;;;;;139.80;68.20;;;;;;;2.73;45.24;102988.48;105234;1281;25273;-79
2022/03/21 03:33:58;;;;;;;137.10;66.90;;;;;;;2.68;45.33;102985.60;105413;1281;22802;-75
2022/03/21 03:36:24;;;;;;;134.40;67.20;;;;;;;2.65;45.58;102984.16;105156;1282;22832;-75
2022/03/21 03:38:51;;;;;;;142.60;68.10;;;;;;;2.62;45.49;102988.83;105364;1281;24199;-76
2022/03/21 03:41:19;;;;;;;137.10;66.20;;;;;;;2.53;45.34;102988.24;105612;1275;22562;-75
2022/03/21 03:43:47;;;;;;;136.10;66.90;;;;;;;2.49;45.51;102982.46;106002;1274;24254;-75
2022/03/21 03:46:16;;;;;;;134.40;66.50;;;;;;;2.46;45.59;102981.59;106052;1275;22674;-77
2022/03/21 03:48:44;;;;;;;134.80;63.60;;;;;;;2.46;45.73;102981.40;105545;1279;24623;-74
2022/03/21 03:51:11;;;;;;;139.20;67.00;;;;;;;2.47;45.89;102983.20;105587;1279;22543;-73
2022/03/21 03:53:38;;;;;;;142.90;65.80;;;;;;;2.42;45.94;102984.43;105431;1279;24435;-73
2022/03/21 03:56:06;;;;;;;145.50;67.00;;;;;;;2.36;45.80;102984.38;105603;1279;22544;-83
2022/03/21 03:58:37;;;;;;;139.60;66.60;;;;;;;2.34;46.05;102981.63;105480;1280;24429;-74
2022/03/21 04:01:05;;;;;;;139.70;65.20;;;;;;;2.33;46.16;102979.09;105690;1279;22569;-73
2022/03/21 04:03:44;;;;;;;144.60;66.80;;;;;;;2.33;46.13;102975.66;105781;1279;22838;-74
2022/03/21 04:06:18;;;;;;;143.40;67.80;;;;;;;2.33;46.22;102978.45;105700;1274;23131;-73
2022/03/21 04:08:46;;;;;;;140.00;65.80;;;;;;;2.34;46.32;102974.12;105966;1274;24383;-69
2022/03/21 04:11:13;;;;;;;149.00;68.90;;;;;;;2.36;46.44;102973.07;105860;1274;24228;-72
2022/03/21 04:13:41;;;;;;;135.10;66.90;;;;;;;2.38;46.58;102971.27;106004;1273;24390;-70
2022/03/21 04:16:08;;;;;;;136.50;65.70;;;;;;;2.37;46.53;102971.77;105113;1283;22777;-82
2022/03/21 04:18:35;;;;;;;147.80;69.40;;;;;;;2.27;46.47;102976.48;105529;1279;25319;-73
2022/03/21 04:21:21;;;;;;;141.80;67.00;;;;;;;2.20;46.72;102972.54;105622;1279;22567;-72
2022/03/21 04:23:48;;;;;;;153.50;69.60;;;;;;;2.18;46.71;102973.65;105602;1279;24242;-71
2022/03/21 04:26:14;;;;;;;139.30;65.20;;;;;;;2.20;46.90;102976.92;105478;1279;22640;-75
2022/03/21 04:28:41;;;;;;;143.50;66.60;;;;;;;2.18;47.04;102977.46;105595;1279;25434;-73
2022/03/21 04:31:07;;;;;;;139.20;66.30;;;;;;;2.18;47.15;102977.13;105556;1279;22633;-74
2022/03/21 04:33:33;;;;;;;146.80;68.80;;;;;;;2.16;47.15;102975.05;105537;1274;22584;-76
2022/03/21 04:35:59;;;;;;;150.10;68.20;;;;;;;2.16;47.19;102975.08;106163;1274;25256;-76
2022/03/21 04:38:26;;;;;;;148.10;68.80;;;;;;;2.16;47.21;102977.13;106048;1276;22709;-74
2022/03/21 04:40:52;;;;;;;139.70;66.30;;;;;;;2.15;47.17;102980.90;106235;1274;22631;-75
2022/03/21 04:43:19;;;;;;;136.10;64.00;;;;;;;2.19;47.10;102980.83;105853;1280;25168;-76
2022/03/21 04:45:47;;;;;;;143.50;68.40;;;;;;;2.25;46.98;102982.40;105656;1280;22535;-76
2022/03/21 04:48:14;;;;;;;142.70;67.40;;;;;;;2.25;46.97;102982.59;105837;1278;22660;-74
2022/03/21 04:50:41;;;;;;;145.30;66.70;;;;;;;2.24;47.01;102985.13;105734;1278;24391;-74
2022/03/21 04:53:08;;;;;;;140.20;64.90;;;;;;;2.21;47.10;102988.75;105710;1279;22532;-72
2022/03/21 04:55:34;;;;;;;133.70;65.20;;;;;;;2.20;47.12;102993.25;105726;1278;22550;-73
2022/03/21 04:58:01;;;;;;;148.20;65.40;;;;;;;2.22;47.21;102992.65;105689;1279;25456;-70
2022/03/21 05:00:27;;;;;;;147.10;63.70;;;;;;;2.19;47.16;102990.39;105731;1279;24700;-73
2022/03/21 05:02:54;;;;;;;133.40;64.70;;;;;;;2.18;47.12;102992.59;105852;1274;23976;-73
2022/03/21 05:05:20;;;;;;;142.10;64.70;;;;;;;2.19;47.17;102994.23;105571;1278;24216;-72
2022/03/21 05:07:47;;;;;;;134.80;64.80;;;;;;;2.23;47.34;102996.36;105586;1278;24384;-72
2022/03/21 05:10:16;;;;;;;131.60;63.30;;;;;;;2.28;47.17;102991.98;105576;1278;25251;-82
2022/03/21 05:12:42;;;;;;;139.70;65.40;;;;;;;2.30;46.98;102992.67;105493;1279;22545;-75
2022/03/21 05:15:09;;;;;;;138.70;64.50;;;;;;;2.26;46.97;102992.73;105570;1279;22671;-72
2022/03/21 05:17:35;;;;;;;132.30;66.20;;;;;;;2.28;46.97;102991.83;105725;1280;25257;-74
2022/03/21 05:20:08;;;;;;;133.60;65.40;;;;;;;2.29;47.12;102988.63;105669;1279;25554;-73
2022/03/21 05:22:35;;;;;;;137.30;63.20;;;;;;;2.32;47.19;102991.41;105802;1277;24245;-78
2022/03/21 05:36:01;;;;;;;134.90;62.30;;;;;;;2.42;47.37;102998.71;105136;1285;25407;-81
2022/03/21 05:38:30;;;;;;;126.00;61.40;;;;;;;2.42;47.04;102996.94;104940;1285;25354;-81
2022/03/21 05:41:02;;;;;;;144.70;64.30;;;;;;;2.41;47.03;102997.23;104954;1287;22748;-81
2022/03/21 05:43:30;;;;;;;133.30;60.40;;;;;;;2.48;47.01;102996.10;105110;1284;24425;-81
2022/03/21 05:45:56;;;;;;;115.60;57.00;;;;;;;2.54;46.93;103004.11;105096;1284;22762;-75
2022/03/21 05:51:09;;;;;;;123.90;59.40;;;;;;;2.62;46.74;103006.09;105619;1279;22704;-80
2022/03/21 05:53:35;;;;;;;120.40;60.50;;;;;;;2.68;46.60;102999.52;105924;1274;24230;-77
2022/03/21 05:56:07;;;;;;;125.70;58.50;;;;;;;2.80;46.49;103005.52;106510;1274;22701;-90
2022/03/21 05:58:34;;;;;;;108.90;55.80;;;;;;;2.87;46.42;103003.85;106256;1274;25379;-90
2022/03/21 06:01:00;;;;;;;125.90;60.50;;;;;;;2.90;46.19;103004.73;105977;1274;22528;-79
2022/03/21 06:03:27;;;;;;;111.60;56.00;;;;;;;2.93;46.36;103006.83;106220;1274;25385;-79
2022/03/21 06:05:55;;;;;;;114.70;54.70;;;;;;;2.95;45.95;103010.62;106041;1274;25266;-80
2022/03/21 06:08:22;;;;;;;104.60;54.00;;;;;;;3.01;45.84;103007.88;106059;1273;24241;-80
2022/03/21 06:10:48;;;;;;;96.90;51.30;;;;;;;3.08;45.50;103009.73;106032;1274;24234;-78
2022/03/21 06:13:15;;;;;;;102.10;51.20;;;;;;;3.14;45.39;103006.80;106036;1274;23216;-77
2022/03/21 06:15:42;;;;;;;93.40;49.60;;;;;;;3.18;45.03;103008.74;106255;1274;25270;-81
2022/03/21 06:18:10;;;;;;;111.30;53.40;;;;;;;3.18;44.80;103009.84;106087;1274;24453;-78
2022/03/21 06:20:37;;;;;;;115.00;54.90;;;;;;;3.18;44.66;103007.36;106158;1274;22589;-78
2022/03/21 06:23:03;;;;;;;110.10;54.20;;;;;;;3.19;44.71;103008.30;106184;1274;23907;-80
2022/03/21 06:25:29;;;;;;;114.80;55.20;;;;;;;3.21;44.63;103004.80;106124;1274;24214;-75
2022/03/21 06:27:56;;;;;;;106.50;53.80;;;;;;;3.25;44.56;103006.91;106141;1274;22770;-77
2022/03/21 06:30:22;;;;;;;106.40;54.70;;;;;;;3.28;44.59;103012.88;106158;1274;25298;-82
2022/03/21 06:32:48;;;;;;;101.20;51.10;;;;;;;3.30;44.59;103006.40;106161;1274;25406;-77
2022/03/21 06:35:14;;;;;;;117.00;54.70;;;;;;;3.40;44.51;103012.05;106069;1274;22997;-77
2022/03/21 06:37:41;;;;;;;105.80;52.30;;;;;;;3.45;44.33;103015.84;106151;1274;22605;-78
2022/03/21 06:42:49;;;;;;;106.50;50.40;;;;;;;3.57;44.08;103011.91;107055;1264;24185;-86
2022/03/21 06:45:16;;;;;;;100.10;50.30;;;;;;;3.62;43.88;103013.39;106588;1274;22484;-84
2022/03/21 06:47:43;;;;;;;97.00;49.00;;;;;;;3.68;43.66;103018.11;106836;1273;22607;-85
2022/03/21 06:50:10;;;;;;;95.40;47.70;;;;;;;3.74;43.60;103020.42;106874;1276;25299;-85
2022/03/21 06:52:39;;;;;;;99.90;49.20;;;;;;;3.81;43.54;103019.24;107092;1279;24404;-84
2022/03/21 06:55:07;;;;;;;91.90;48.30;;;;;;;3.86;43.43;103020.45;107204;1279;22578;-87
2022/03/21 06:57:36;;;;;;;77.60;45.40;;;;;;;3.93;43.23;103020.64;106112;1280;24461;-85
2022/03/21 07:00:05;;;;;;;82.10;44.30;;;;;;;4.03;42.98;103025.09;105766;1281;24012;-86
2022/03/21 07:02:33;;;;;;;76.00;44.50;;;;;;;4.12;42.81;103025.48;105851;1281;22597;-85
2022/03/21 07:05:00;;;;;;;87.90;44.80;;;;;;;4.24;42.64;103024.61;105618;1280;23290;-86
2022/03/21 07:07:27;;;;;;;87.30;45.10;;;;;;;4.31;42.46;103017.02;105565;1279;22565;-84
2022/03/21 07:09:53;;;;;;;76.70;42.20;;;;;;;4.44;42.41;103022.83;105589;1278;24224;-85
2022/03/21 07:12:19;;;;;;;71.20;42.30;;;;;;;4.51;42.05;103021.50;106163;1274;23712;-85
2022/03/21 07:14:48;;;;;;;73.50;40.40;;;;;;;4.61;41.91;103023.08;106104;1274;22643;-84
2022/03/21 07:17:18;;;;;;;73.90;42.70;;;;;;;4.68;41.67;103023.30;105753;1277;25277;-85
2022/03/21 07:19:44;;;;;;;86.30;42.70;;;;;;;4.79;41.50;103027.23;106363;1276;22560;-84
2022/03/21 07:22:10;;;;;;;76.80;39.80;;;;;;;4.87;41.22;103031.02;106162;1276;22557;-84
2022/03/21 07:24:36;;;;;;;75.30;41.90;;;;;;;4.93;41.16;103034.35;106010;1274;23966;-87
2022/03/21 07:27:03;;;;;;;71.00;40.70;;;;;;;5.02;41.13;103033.27;105972;1275;22570;-86
2022/03/21 07:29:29;;;;;;;73.40;41.00;;;;;;;5.13;40.89;103029.02;105982;1273;22604;-84
2022/03/21 07:31:57;;;;;;;68.20;40.40;;;;;;;5.24;40.68;103025.36;106039;1274;22568;-85
2022/03/21 07:34:23;;;;;;;81.10;39.90;;;;;;;5.32;40.45;103023.17;105833;1274;22904;-84
2022/03/21 07:36:50;;;;;;;73.30;38.10;;;;;;;5.41;40.27;103028.60;105805;1274;22639;-84
2022/03/21 07:39:17;;;;;;;67.60;38.00;;;;;;;5.51;40.13;103030.66;106251;1274;22579;-81
2022/03/21 07:41:44;;;;;;;62.00;37.00;;;;;;;5.61;39.91;103021.94;106579;1274;23192;-84
2022/03/21 07:44:11;;;;;;;72.60;38.10;;;;;;;5.72;40.04;103023.94;107591;1274;25273;-86
2022/03/21 07:49:22;;;;;;;62.00;37.80;;;;;;;6.02;39.74;103024.98;106841;1274;24214;-83
2022/03/21 07:51:48;;;;;;;63.80;35.00;;;;;;;6.17;39.56;103025.58;107993;1274;22544;-85
2022/03/21 07:54:15;;;;;;;64.70;36.80;;;;;;;6.31;39.18;103029.61;106918;1277;24268;-85
2022/03/21 07:56:41;;;;;;;67.30;35.90;;;;;;;6.42;38.96;103027.55;107811;1274;25261;-85
2022/03/21 07:59:08;;;;;;;59.40;33.10;;;;;;;6.54;38.63;103024.27;106119;1274;22577;-86
2022/03/21 08:01:34;;;;;;;57.30;33.50;;;;;;;6.62;38.61;103020.49;106037;1274;25388;-84
2022/03/21 08:04:03;;;;;;;62.80;32.50;;;;;;;6.78;38.21;103027.04;105888;1274;25431;-84
2022/03/21 08:06:30;;;;;;;42.80;26.50;;;;;;;6.92;38.16;103023.33;105910;1274;24766;-84
2022/03/21 08:08:57;;;;;;;39.30;23.50;;;;;;;7.07;37.78;103017.02;105807;1275;23389;-84
2022/03/21 08:11:24;;;;;;;43.70;23.50;;;;;;;7.20;37.27;103017.66;105693;1274;23930;-84
2022/03/21 08:13:50;;;;;;;35.70;21.70;;;;;;;7.34;36.99;103016.19;105833;1274;24248;-85
2022/03/21 08:16:19;;;;;;;34.70;23.30;;;;;;;7.47;36.74;103013.30;105867;1276;26571;-84
2022/03/21 08:18:50;;;;;;;36.80;23.40;;;;;;;7.61;36.66;103015.81;105760;1275;22563;-82
2022/03/21 08:21:17;;;;;;;40.20;24.60;;;;;;;7.75;36.33;103016.11;105848;1273;26640;-81
2022/03/21 08:23:45;;;;;;;37.30;23.90;;;;;;;7.87;36.01;103014.19;106014;1274;24475;-83
2022/03/21 08:26:11;;;;;;;34.10;21.10;;;;;;;8.03;35.95;103014.33;105990;1273;24323;-85
2022/03/21 08:28:38;;;;;;;37.80;22.90;;;;;;;8.19;35.65;103010.64;105986;1273;22517;-85
2022/03/21 08:31:04;;;;;;;44.50;21.70;;;;;;;8.35;35.40;103011.67;107114;1274;23178;-82
2022/03/21 08:33:30;;;;;;;35.10;22.10;;;;;;;8.51;35.07;103014.98;107535;1274;24366;-86
2022/03/21 08:35:56;;;;;;;37.60;21.50;;;;;;;8.67;34.44;103011.80;106871;1273;22577;-85
2022/03/21 08:38:28;;;;;;;28.90;18.70;;;;;;;8.83;33.98;103011.53;108161;1273;23943;-82
2022/03/21 08:40:56;;;;;;;30.90;19.10;;;;;;;8.98;33.74;103009.67;107498;1273;22545;-85
2022/03/21 08:43:22;;;;;;;24.60;16.90;;;;;;;9.15;33.39;103003.48;106616;1279;22785;-84
2022/03/21 08:45:49;;;;;;;33.80;17.30;;;;;;;9.34;33.17;103000.67;108325;1279;22593;-83
2022/03/21 08:48:16;;;;;;;30.40;17.70;;;;;;;9.51;32.93;102994.61;108799;1279;22617;-83
2022/03/21 08:50:43;;;;;;;30.60;18.60;;;;;;;9.70;32.91;102994.45;108617;1279;22563;-83
2022/03/21 08:53:10;;;;;;;28.90;17.60;;;;;;;9.91;32.69;102986.56;108060;1281;22572;-82
2022/03/21 08:55:36;;;;;;;25.80;17.00;;;;;;;10.11;32.22;102984.26;105597;1281;23065;-85
2022/03/21 08:58:02;;;;;;;28.30;16.80;;;;;;;10.30;31.96;102986.11;105632;1281;22573;-85
2022/03/21 09:00:29;;;;;;;26.20;16.10;;;;;;;10.46;31.49;102984.38;105608;1281;23457;-83
2022/03/21 09:02:55;;;;;;;27.50;17.20;;;;;;;10.64;30.93;102982.15;105906;1276;25432;-86
2022/03/21 09:05:22;;;;;;;28.10;16.20;;;;;;;10.78;30.67;102979.77;105907;1276;25376;-85
2022/03/21 09:07:48;;;;;;;29.60;16.10;;;;;;;10.94;30.66;102979.89;106145;1274;22708;-84
2022/03/21 09:10:16;;;;;;;28.20;17.10;;;;;;;11.13;30.48;102977.64;106138;1276;23889;-85
2022/03/21 09:12:43;;;;;;;29.00;16.00;;;;;;;11.27;29.79;102976.99;105422;1284;25269;-84
2022/03/21 09:15:09;;;;;;;28.40;16.50;;;;;;;11.42;29.81;102974.95;105452;1282;25313;-86
2022/03/21 09:17:39;;;;;;;25.70;15.70;;;;;;;11.65;29.69;102981.61;105466;1282;22891;-85
2022/03/21 09:20:07;;;;;;;36.90;16.70;;;;;;;11.88;29.34;102977.65;105450;1282;23066;-85
2022/03/21 09:22:33;;;;;;;28.50;16.80;;;;;;;12.12;29.17;102981.48;105545;1281;22551;-87
2022/03/21 09:24:59;;;;;;;25.10;15.70;;;;;;;12.32;28.88;102984.13;105323;1282;24379;-84
2022/03/21 09:27:27;;;;;;;23.60;14.40;;;;;;;12.49;28.52;102984.89;105689;1281;22577;-86
2022/03/21 09:29:54;;;;;;;23.10;15.00;;;;;;;12.68;28.21;102983.40;105385;1282;22568;-85
2022/03/21 09:32:21;;;;;;;23.60;14.80;;;;;;;12.90;28.14;102984.23;105451;1282;23963;-85
2022/03/21 09:34:47;;;;;;;24.40;14.40;;;;;;;13.12;27.98;102978.55;105651;1281;22563;-85
2022/03/21 09:37:13;;;;;;;23.10;15.50;;;;;;;13.31;27.62;102975.05;105334;1276;25275;-84
2022/03/21 09:39:40;;;;;;;22.40;15.20;;;;;;;13.48;27.38;102971.35;105913;1273;22868;-86
2022/03/21 09:42:06;;;;;;;24.00;14.40;;;;;;;13.65;27.22;102969.03;106152;1274;22795;-87
2022/03/21 09:44:34;;;;;;;21.90;15.10;;;;;;;13.80;26.73;102966.13;106112;1274;25330;-85
2022/03/21 09:48:08;;;;;;;26.30;16.00;;;;;;;13.96;26.59;102965.35;106092;1274;22579;-84
2022/03/21 09:49:52;;;;;;;25.70;14.70;;;;;;;14.15;26.20;102964.96;105405;1281;22713;-85
2022/03/21 09:52:21;;;;;;;24.80;16.20;;;;;;;14.25;25.65;102963.73;105699;1281;25542;-83
2022/03/21 09:54:50;;;;;;;27.10;16.10;;;;;;;14.36;25.53;102962.66;105623;1282;22815;-84
2022/03/21 09:57:18;;;;;;;22.10;14.50;;;;;;;14.52;25.42;102959.90;105300;1281;25857;-84
2022/03/21 09:59:45;;;;;;;20.60;14.40;;;;;;;14.66;25.11;102951.93;105427;1282;22632;-85
2022/03/21 10:02:16;;;;;;;19.40;14.00;;;;;;;14.79;24.98;102948.61;105384;1281;25801;-85
2022/03/21 10:04:44;;;;;;;17.90;11.70;;;;;;;14.95;24.52;102942.80;105368;1282;24272;-85
2022/03/21 10:07:11;;;;;;;23.50;12.00;;;;;;;15.03;24.01;102939.02;105291;1276;23243;-86
2022/03/21 10:09:37;;;;;;;20.60;12.30;;;;;;;15.14;23.96;102936.66;105879;1274;24219;-85
2022/03/21 10:12:09;;;;;;;18.00;13.30;;;;;;;15.28;23.93;102931.52;105876;1273;22560;-85
2022/03/21 10:14:37;;;;;;;22.20;13.30;;;;;;;15.39;23.68;102933.42;106024;1273;25325;-85
2022/03/21 10:17:05;;;;;;;18.50;13.40;;;;;;;15.46;23.58;102933.84;105461;1274;719416;-85
2022/03/21 10:19:51;;;;;;;17.90;12.40;;;;;;;15.61;23.61;102927.44;106060;1273;24285;-86
2022/03/21 10:22:34;;;;;;;19.40;13.40;;;;;;;15.76;23.06;102924.38;106016;1274;22564;-85
2022/03/21 10:25:04;;;;;;;23.50;14.10;;;;;;;15.85;23.03;102922.16;105964;1274;22532;-84
2022/03/21 10:27:39;;;;;;;22.80;14.00;;;;;;;15.97;22.77;102921.75;105721;1274;22558;-84
2022/03/21 10:30:22;;;;;;;23.60;13.10;;;;;;;16.11;22.63;102914.77;105806;1273;25359;-84
2022/03/21 10:32:57;;;;;;;18.90;12.40;;;;;;;16.35;22.09;102917.63;105829;1276;22853;-85
2022/03/21 10:35:28;;;;;;;14.50;11.70;;;;;;;16.47;22.03;102911.48;106097;1275;23103;-86
2022/03/21 10:38:00;;;;;;;17.00;12.60;;;;;;;16.54;21.85;102911.16;105872;1277;22541;-83
2022/03/21 10:40:43;;;;;;;18.50;12.70;;;;;;;16.67;21.59;102903.95;106318;1273;24241;-83
2022/03/21 10:43:13;;;;;;;18.90;13.80;;;;;;;16.88;21.63;102899.42;106569;1273;23865;-83
2022/03/21 10:45:43;;;;;;;18.30;12.40;;;;;;;16.89;21.36;102894.98;106427;1273;25265;-85
2022/03/21 10:48:12;;;;;;;17.60;12.00;;;;;;;17.01;21.35;102898.58;106304;1273;24166;-86
2022/03/21 10:50:46;;;;;;;21.10;11.40;;;;;;;17.14;21.47;102898.33;106089;1273;22669;-83
2022/03/21 10:53:16;;;;;;;16.00;11.20;;;;;;;17.30;21.06;102894.63;106317;1273;25283;-83
2022/03/21 10:55:45;;;;;;;21.20;12.90;;;;;;;17.29;20.76;102891.06;106547;1274;24237;-84
2022/03/21 10:58:14;;;;;;;19.20;12.30;;;;;;;17.29;20.91;102889.64;106170;1276;25486;-86
2022/03/21 11:00:41;;;;;;;15.10;11.60;;;;;;;17.43;20.78;102881.64;106216;1273;24351;-86
2022/03/21 11:03:16;;;;;;;19.30;12.60;;;;;;;17.58;20.47;102879.89;106031;1273;26062;-85
2022/03/21 11:05:47;;;;;;;16.70;11.80;;;;;;;17.71;20.45;102875.27;105670;1274;25303;-85
2022/03/21 11:08:16;;;;;;;16.40;11.80;;;;;;;17.80;20.33;102871.89;105702;1273;25316;-85
2022/03/21 11:10:43;;;;;;;20.20;11.50;;;;;;;17.94;20.24;102865.64;105946;1273;25359;-84
2022/03/21 11:13:10;;;;;;;15.40;11.30;;;;;;;18.13;20.26;102865.81;105844;1274;22553;-85
2022/03/21 11:15:38;;;;;;;15.40;10.90;;;;;;;18.28;19.72;102864.92;106035;1273;25436;-81
2022/03/21 11:18:05;;;;;;;11.00;9.90;;;;;;;18.43;19.86;102862.57;105796;1274;22628;-84
2022/03/21 11:20:32;;;;;;;13.20;9.60;;;;;;;18.60;19.62;102857.88;106012;1273;22583;-83
2022/03/21 11:23:00;;;;;;;13.00;10.10;;;;;;;18.71;19.56;102858.54;106063;1273;26481;-85
2022/03/21 11:25:36;;;;;;;14.00;10.50;;;;;;;18.74;19.20;102860.68;106307;1273;24153;-84
2022/03/21 11:28:27;;;;;;;12.90;10.40;;;;;;;18.85;19.26;102856.17;106204;1274;25914;-83
2022/03/21 11:31:12;;;;;;;14.40;10.30;;;;;;;18.97;19.13;102851.46;106389;1273;25689;-84